Time;durP1;ratioP1;P1;durP2;ratioP2;P2;SDS_P1;SDS_P2;PMS_P1;PMS_P2;Temp;Humidity;BMP_temperature;BMP_pressure;BME280_temperature;BME280_humidity;BME280_pressure;Samples;Min_cycle;Max_cycle;Signal;HPM_P1;HPM_P2
2021/08/18 00:00:44;;;;;;;15.70;10.97;;;;;;;15.78;75.35;100799.69;5039108;28;20429;-70
2021/08/18 00:03:10;;;;;;;11.60;10.37;;;;;;;15.90;75.13;100793.44;5038708;28;20435;-71
2021/08/18 00:05:35;;;;;;;12.70;10.50;;;;;;;15.89;75.24;100804.88;5039112;28;20450;-71
2021/08/18 00:08:02;;;;;;;14.37;10.50;;;;;;;15.86;75.14;100791.75;5038960;28;20185;-70
2021/08/18 00:10:28;;;;;;;15.23;11.17;;;;;;;15.92;75.26;100795.16;5038942;28;20231;-71
2021/08/18 00:12:54;;;;;;;14.57;11.97;;;;;;;15.72;75.65;100797.13;5021944;28;20413;-69
2021/08/18 00:15:19;;;;;;;15.17;11.30;;;;;;;15.58;76.74;100795.50;5038930;28;20406;-71
2021/08/18 00:17:44;;;;;;;13.87;10.83;;;;;;;15.64;76.66;100786.69;5038672;28;20230;-70
2021/08/18 00:20:10;;;;;;;15.63;12.00;;;;;;;15.54;76.73;100792.94;5038729;28;20558;-70
2021/08/18 00:22:35;;;;;;;15.67;11.23;;;;;;;15.61;76.91;100791.97;5038577;28;20174;-70
2021/08/18 00:25:01;;;;;;;13.47;10.43;;;;;;;15.71;76.68;100796.25;5038449;28;20465;-70
2021/08/18 00:27:26;;;;;;;14.20;12.13;;;;;;;15.49;77.34;100790.34;5038998;28;20194;-70
2021/08/18 00:29:51;;;;;;;14.37;11.50;;;;;;;16.11;74.92;100793.19;5038685;28;20303;-71
2021/08/18 00:32:17;;;;;;;12.23;10.77;;;;;;;15.69;76.83;100795.41;5037760;28;20244;-71
2021/08/18 00:34:42;;;;;;;17.87;11.80;;;;;;;15.67;76.61;100786.69;5038264;28;20527;-69
2021/08/18 00:37:07;;;;;;;14.33;11.87;;;;;;;15.43;77.33;100786.03;5038399;28;20560;-70
2021/08/18 00:39:32;;;;;;;13.77;10.90;;;;;;;15.73;76.32;100786.59;5038369;28;20296;-72
2021/08/18 00:41:58;;;;;;;13.93;11.07;;;;;;;15.39;77.26;100789.56;5039310;28;20205;-71
2021/08/18 00:44:23;;;;;;;16.60;11.23;;;;;;;15.42;77.37;100794.78;5038432;28;20267;-71
2021/08/18 00:46:51;;;;;;;16.10;11.87;;;;;;;15.47;77.70;100785.09;5021489;28;20181;-71
2021/08/18 00:49:18;;;;;;;15.27;10.67;;;;;;;15.26;77.98;100793.19;5038983;28;20162;-71
2021/08/18 00:51:43;;;;;;;13.23;11.37;;;;;;;15.36;77.30;100789.59;5038344;28;20416;-71
2021/08/18 00:54:09;;;;;;;13.63;11.70;;;;;;;15.69;76.75;100784.88;5038076;28;20436;-71
2021/08/18 00:56:34;;;;;;;14.10;11.30;;;;;;;15.43;77.75;100788.66;5038902;28;20177;-70
2021/08/18 00:59:00;;;;;;;15.07;11.27;;;;;;;15.57;77.30;100782.38;5038169;28;20447;-71
2021/08/18 01:01:25;;;;;;;16.30;11.77;;;;;;;15.60;77.06;100787.59;5038337;28;20228;-70
2021/08/18 01:03:50;;;;;;;17.57;11.07;;;;;;;15.86;76.07;100778.59;5038441;28;20175;-71
2021/08/18 01:06:16;;;;;;;14.80;11.03;;;;;;;15.66;76.44;100772.66;5038179;28;20619;-70
2021/08/18 01:08:41;;;;;;;15.33;12.07;;;;;;;15.56;76.77;100778.91;5038174;28;20469;-71
2021/08/18 01:11:06;;;;;;;11.93;10.67;;;;;;;15.46;77.43;100780.72;5038514;28;20178;-70
2021/08/18 01:13:31;;;;;;;12.53;11.20;;;;;;;15.55;77.14;100776.28;5037951;28;20174;-70
2021/08/18 01:15:58;;;;;;;12.50;10.73;;;;;;;15.44;77.64;100792.16;5038103;28;20174;-71
2021/08/18 01:18:23;;;;;;;17.33;11.70;;;;;;;15.72;77.02;100779.63;5038354;28;20208;-71
2021/08/18 01:20:48;;;;;;;16.97;11.57;;;;;;;15.64;76.41;100779.69;5038279;28;20812;-71
2021/08/18 01:23:14;;;;;;;15.50;13.83;;;;;;;15.82;76.68;100776.00;5038090;28;20174;-71
2021/08/18 01:25:41;;;;;;;16.20;11.73;;;;;;;15.41;77.42;100779.94;5037876;28;20225;-70
2021/08/18 01:28:07;;;;;;;14.30;10.50;;;;;;;15.60;76.82;100775.34;5038191;28;20261;-70
2021/08/18 01:30:34;;;;;;;12.10;10.90;;;;;;;15.28;78.14;100781.78;5038470;28;20444;-70
2021/08/18 01:33:07;;;;;;;12.60;11.30;;;;;;;15.32;78.23;100782.63;5037832;28;20433;-70
2021/08/18 01:35:37;;;;;;;13.33;11.93;;;;;;;15.38;77.92;100779.94;5038034;28;20701;-70
2021/08/18 01:38:05;;;;;;;14.33;11.40;;;;;;;15.31;78.23;100781.75;5020749;28;20464;-70
2021/08/18 01:40:31;;;;;;;12.50;11.30;;;;;;;15.43;77.32;100778.16;5038018;28;20814;-70
2021/08/18 01:42:56;;;;;;;12.33;10.90;;;;;;;15.59;76.80;100783.25;5038043;28;20420;-71
2021/08/18 01:45:24;;;;;;;14.20;11.37;;;;;;;15.14;78.59;100776.66;5037725;28;20277;-71
2021/08/18 01:47:50;;;;;;;14.23;12.53;;;;;;;15.33;77.94;100784.38;5020551;28;20174;-71
2021/08/18 01:50:16;;;;;;;13.27;11.87;;;;;;;15.09;78.28;100782.84;5038351;28;20466;-70
2021/08/18 01:52:42;;;;;;;13.30;11.70;;;;;;;15.28;77.73;100776.53;5037703;28;20432;-71
2021/08/18 01:55:08;;;;;;;17.63;12.20;;;;;;;15.13;78.04;100782.78;5037628;28;20536;-71
2021/08/18 01:57:33;;;;;;;14.57;11.20;;;;;;;15.39;77.20;100779.06;5038108;28;20431;-71
2021/08/18 01:59:59;;;;;;;13.20;11.80;;;;;;;15.35;77.49;100774.72;5037844;28;20872;-70
2021/08/18 02:02:29;;;;;;;13.33;11.13;;;;;;;15.03;78.42;100778.50;5037664;28;20206;-71
2021/08/18 02:04:55;;;;;;;14.53;11.60;;;;;;;15.11;78.17;100773.19;5037923;28;20178;-71
2021/08/18 02:07:20;;;;;;;12.43;11.23;;;;;;;15.00;78.43;100768.03;5039619;28;20425;-70
2021/08/18 02:09:45;;;;;;;14.27;12.40;;;;;;;14.98;78.66;100761.94;5041432;28;20421;-71
2021/08/18 02:12:10;;;;;;;14.07;11.13;;;;;;;14.94;78.71;100758.44;5041770;28;20173;-71
2021/08/18 02:14:36;;;;;;;12.73;11.27;;;;;;;15.14;78.57;100757.41;5041131;28;20178;-71
2021/08/18 02:17:01;;;;;;;13.53;12.13;;;;;;;14.90;nan;100761.97;5041171;28;20178;-71
2021/08/18 02:19:29;;;;;;;15.63;11.67;;;;;;;15.09;78.23;100760.06;5041599;28;20186;-71
2021/08/18 02:21:55;;;;;;;12.60;11.40;;;;;;;14.67;79.71;100756.03;5041066;28;20179;-71
2021/08/18 02:24:20;;;;;;;18.10;13.23;;;;;;;15.08;78.49;100753.06;5040746;28;20857;-71
2021/08/18 02:26:45;;;;;;;16.30;12.83;;;;;;;15.08;78.32;100746.97;5041663;28;20170;-71
2021/08/18 02:29:11;;;;;;;13.10;11.70;;;;;;;14.84;79.49;100745.41;5041070;28;20170;-70
2021/08/18 02:31:36;;;;;;;13.90;12.40;;;;;;;15.04;78.83;100740.84;5041024;28;20532;-71
2021/08/18 02:34:01;;;;;;;17.60;13.57;;;;;;;14.83;78.96;100741.94;5041133;28;20181;-71
2021/08/18 02:36:26;;;;;;;14.10;12.60;;;;;;;14.79;79.55;100741.06;5040937;28;20182;-71
2021/08/18 02:38:52;;;;;;;15.63;13.00;;;;;;;14.92;79.07;100736.56;5040926;28;20206;-71
2021/08/18 02:41:17;;;;;;;16.60;13.27;;;;;;;14.93;78.74;100733.06;5041408;28;20216;-71
2021/08/18 02:43:42;;;;;;;16.90;13.67;;;;;;;14.95;79.03;100730.44;5040649;28;20233;-72
2021/08/18 02:46:08;;;;;;;15.73;13.17;;;;;;;14.88;79.39;100729.63;5040620;28;20189;-71
2021/08/18 02:48:33;;;;;;;20.37;15.00;;;;;;;14.53;80.39;100737.72;5041081;28;20170;-71
2021/08/18 02:50:59;;;;;;;15.57;13.43;;;;;;;14.72;80.31;100718.41;5040607;28;20180;-71
2021/08/18 02:53:24;;;;;;;14.80;12.73;;;;;;;14.71;80.03;100721.91;5040366;28;20221;-71
2021/08/18 02:55:50;;;;;;;15.27;13.63;;;;;;;14.81;79.76;100720.06;5041043;28;20174;-71
2021/08/18 02:58:15;;;;;;;17.10;13.10;;;;;;;15.01;78.15;100719.88;5040407;28;20198;-71
2021/08/18 03:00:41;;;;;;;16.40;13.30;;;;;;;14.75;79.74;100715.75;5040160;28;20478;-71
2021/08/18 03:03:06;;;;;;;14.63;12.17;;;;;;;14.78;79.39;100720.94;5040772;28;20213;-71
2021/08/18 03:05:31;;;;;;;17.57;13.97;;;;;;;15.04;78.70;100713.75;5040420;28;20217;-70
2021/08/18 03:07:56;;;;;;;17.23;12.60;;;;;;;14.64;80.08;100713.19;5040319;28;20221;-70
2021/08/18 03:10:22;;;;;;;14.33;11.90;;;;;;;14.55;80.47;100712.38;5040684;28;20170;-70
2021/08/18 03:12:47;;;;;;;17.20;12.97;;;;;;;14.79;79.30;100713.97;5040217;28;20540;-71
2021/08/18 03:15:13;;;;;;;16.87;12.70;;;;;;;14.78;79.23;100713.06;5040031;28;20185;-71
2021/08/18 03:17:39;;;;;;;15.93;13.30;;;;;;;14.82;79.33;100716.56;5040514;28;20217;-71
2021/08/18 03:20:05;;;;;;;15.17;12.80;;;;;;;14.98;78.51;100712.91;5040054;28;20485;-71
2021/08/18 03:22:31;;;;;;;18.23;13.63;;;;;;;14.97;78.71;100712.94;5039897;28;20228;-72
2021/08/18 03:24:56;;;;;;;20.60;15.20;;;;;;;15.10;78.07;100714.56;5039833;28;20551;-71
2021/08/18 03:27:22;;;;;;;14.70;13.20;;;;;;;14.72;79.36;100707.00;5039841;28;20182;-72
2021/08/18 03:29:48;;;;;;;19.03;13.70;;;;;;;14.48;80.65;100704.53;5040228;28;20209;-71
2021/08/18 03:32:13;;;;;;;15.73;13.77;;;;;;;15.01;78.48;100708.53;5039895;28;20680;-71
2021/08/18 03:34:38;;;;;;;16.23;14.53;;;;;;;14.67;79.90;100701.81;5039787;28;20281;-71
2021/08/18 03:37:04;;;;;;;20.93;14.20;;;;;;;14.69;79.94;100701.78;5040489;28;20189;-71
2021/08/18 03:39:29;;;;;;;16.87;14.70;;;;;;;14.75;79.61;100692.13;5039774;28;20214;-71
2021/08/18 03:41:54;;;;;;;17.20;14.80;;;;;;;14.62;79.86;100701.78;5039605;28;20252;-71
2021/08/18 03:44:20;;;;;;;16.90;14.83;;;;;;;14.64;79.73;100707.09;5039929;28;20575;-71
2021/08/18 03:46:45;;;;;;;22.80;15.57;;;;;;;14.62;79.64;100703.56;5039569;28;20206;-71
2021/08/18 03:49:10;;;;;;;19.20;15.60;;;;;;;14.67;80.36;100700.91;5039600;28;20224;-71
2021/08/18 03:51:36;;;;;;;18.00;15.37;;;;;;;14.75;79.64;100707.00;5039824;28;20176;-71
2021/08/18 03:54:01;;;;;;;20.50;15.23;;;;;;;14.57;80.10;100700.09;5039289;28;20446;-71
2021/08/18 03:56:26;;;;;;;17.60;15.10;;;;;;;14.59;80.18;100711.47;5039379;28;20166;-71
2021/08/18 03:58:52;;;;;;;20.10;15.27;;;;;;;14.59;80.13;100712.31;5039630;28;20213;-71
2021/08/18 04:01:17;;;;;;;20.33;16.17;;;;;;;14.55;80.30;100715.00;5039162;28;20178;-70
2021/08/18 04:03:42;;;;;;;17.60;14.37;;;;;;;14.74;79.79;100714.00;5039093;28;20177;-71
2021/08/18 04:06:08;;;;;;;19.90;15.67;;;;;;;14.99;78.74;100704.16;5039659;28;20201;-71
2021/08/18 04:08:34;;;;;;;19.47;16.93;;;;;;;14.72;79.57;100697.41;5039156;28;20492;-71
2021/08/18 04:10:59;;;;;;;17.33;14.60;;;;;;;14.71;79.65;100695.66;5039046;28;20265;-71
2021/08/18 04:13:24;;;;;;;23.00;17.30;;;;;;;14.46;80.50;100693.19;5039538;28;20515;-71
2021/08/18 04:15:49;;;;;;;18.10;14.73;;;;;;;15.03;78.94;100698.88;5038825;28;20174;-71
2021/08/18 04:18:15;;;;;;;17.67;15.07;;;;;;;14.90;79.50;100706.00;5038646;28;20245;-71
2021/08/18 04:20:40;;;;;;;20.57;15.87;;;;;;;14.91;79.00;100707.72;5039317;28;20170;-72
2021/08/18 04:23:06;;;;;;;18.70;15.30;;;;;;;14.98;79.01;100707.66;5038830;28;20220;-71
2021/08/18 04:25:32;;;;;;;17.53;14.90;;;;;;;14.96;79.21;100711.19;5038829;28;20275;-71
2021/08/18 04:27:57;;;;;;;19.23;14.50;;;;;;;14.66;80.43;100707.94;5039298;28;20253;-71
2021/08/18 04:30:23;;;;;;;21.53;15.70;;;;;;;14.76;79.90;100713.97;5038271;28;20421;-71
2021/08/18 04:32:49;;;;;;;19.30;15.97;;;;;;;14.80;79.90;100716.56;5021456;28;20174;-71
2021/08/18 04:35:16;;;;;;;18.23;15.00;;;;;;;14.92;79.33;100723.44;5039323;28;20453;-71
2021/08/18 04:37:41;;;;;;;18.73;16.03;;;;;;;14.98;78.74;100720.78;5038650;28;20487;-71
2021/08/18 04:40:11;;;;;;;15.97;13.97;;;;;;;14.93;79.03;100726.97;5038558;28;20395;-71
2021/08/18 04:42:38;;;;;;;17.30;14.73;;;;;;;15.07;78.95;100714.59;5038931;28;20184;-71
2021/08/18 04:45:05;;;;;;;19.80;14.93;;;;;;;15.08;78.53;100712.84;5038618;28;20744;-70
2021/08/18 04:47:31;;;;;;;19.70;15.10;;;;;;;15.16;77.89;100717.09;5038410;28;20407;-71
2021/08/18 04:49:56;;;;;;;23.60;15.10;;;;;;;14.90;78.93;100708.63;5039118;28;20375;-71
2021/08/18 04:52:21;;;;;;;16.70;14.90;;;;;;;15.15;78.15;100706.63;5038528;28;20179;-70
2021/08/18 04:54:47;;;;;;;19.93;14.93;;;;;;;15.26;77.74;100711.78;5038397;28;20249;-71
2021/08/18 04:57:12;;;;;;;17.60;15.53;;;;;;;14.93;78.96;100709.44;5038970;28;20198;-71
2021/08/18 04:59:37;;;;;;;17.47;15.20;;;;;;;15.07;78.82;100711.97;5038470;28;20566;-71
2021/08/18 05:02:03;;;;;;;18.93;15.73;;;;;;;15.18;78.31;100713.59;5038253;28;20216;-71
2021/08/18 05:04:28;;;;;;;18.23;15.53;;;;;;;15.23;78.33;100710.03;5038746;28;20259;-71
2021/08/18 05:06:53;;;;;;;18.27;15.57;;;;;;;15.20;78.60;100706.59;5038167;28;20216;-71
2021/08/18 05:09:19;;;;;;;19.37;15.20;;;;;;;15.41;77.19;100709.00;5038451;28;20185;-71
2021/08/18 05:11:44;;;;;;;17.47;14.70;;;;;;;15.40;76.98;100701.13;5038946;28;20229;-71
2021/08/18 05:14:09;;;;;;;16.57;14.37;;;;;;;15.80;76.03;100693.69;5038225;28;20547;-72
2021/08/18 05:16:34;;;;;;;17.27;15.33;;;;;;;15.40;76.92;100699.38;5038087;28;20163;-71
2021/08/18 05:19:00;;;;;;;17.50;14.27;;;;;;;15.02;78.38;100703.25;5038267;28;20205;-71
2021/08/18 05:21:25;;;;;;;17.00;13.60;;;;;;;15.44;77.29;100693.19;5038021;28;20227;-71
2021/08/18 05:23:50;;;;;;;16.93;14.83;;;;;;;15.29;77.49;100701.25;5037510;28;20218;-71
2021/08/18 05:26:16;;;;;;;14.63;13.23;;;;;;;15.39;77.23;100702.03;5038360;28;20170;-71
2021/08/18 05:28:41;;;;;;;18.27;13.97;;;;;;;15.40;77.44;100690.63;5037927;28;20174;-71
2021/08/18 05:31:07;;;;;;;14.37;12.37;;;;;;;15.72;76.16;100690.25;5037900;28;20189;-72
2021/08/18 05:33:33;;;;;;;15.33;13.57;;;;;;;15.48;76.36;100691.41;5038256;28;20166;-71
2021/08/18 05:35:58;;;;;;;15.43;13.83;;;;;;;15.79;76.12;100686.66;5037790;28;20216;-72
2021/08/18 05:38:23;;;;;;;15.07;12.40;;;;;;;15.56;76.80;100688.69;5020421;28;20713;-72
2021/08/18 05:40:49;;;;;;;16.17;12.00;;;;;;;15.72;76.42;100690.25;5038420;28;20174;-71
2021/08/18 05:43:14;;;;;;;14.63;12.37;;;;;;;15.56;76.92;100683.41;5041371;28;20177;-71
2021/08/18 05:45:39;;;;;;;14.60;13.07;;;;;;;15.61;76.65;100679.88;5041811;28;20234;-70
2021/08/18 05:48:05;;;;;;;16.60;13.37;;;;;;;15.69;76.52;100669.25;5042348;28;20212;-71
2021/08/18 05:50:30;;;;;;;15.37;13.77;;;;;;;15.78;75.95;100671.75;5041645;28;20167;-72
2021/08/18 05:52:55;;;;;;;16.13;14.20;;;;;;;16.11;75.12;100679.25;5041493;28;20178;-71
2021/08/18 05:55:21;;;;;;;14.30;11.73;;;;;;;16.28;74.10;100661.44;5024866;28;20478;-71
2021/08/18 05:57:46;;;;;;;14.03;12.37;;;;;;;16.32;74.29;100667.53;5041372;28;20205;-71
2021/08/18 06:00:12;;;;;;;12.57;11.27;;;;;;;16.58;73.15;100663.63;5041468;28;20174;-71
2021/08/18 06:02:37;;;;;;;12.47;11.00;;;;;;;16.50;72.77;100667.22;5041857;28;20209;-71
2021/08/18 06:05:03;;;;;;;16.00;11.97;;;;;;;16.78;72.43;100665.94;5041659;28;20182;-71
2021/08/18 06:07:28;;;;;;;13.07;11.67;;;;;;;16.32;73.69;100662.28;5041485;28;20177;-72
2021/08/18 06:09:53;;;;;;;12.70;10.83;;;;;;;16.23;74.14;100658.00;5041983;28;20479;-72
2021/08/18 06:12:19;;;;;;;12.80;10.63;;;;;;;16.39;73.83;100668.31;5041396;28;20193;-70
2021/08/18 06:14:44;;;;;;;12.27;10.00;;;;;;;16.66;72.58;100672.25;5041212;28;20210;-72
2021/08/18 06:17:09;;;;;;;10.00;8.97;;;;;;;16.79;72.11;100676.44;5041778;28;20170;-71
2021/08/18 06:19:35;;;;;;;9.70;8.80;;;;;;;16.64;72.41;100679.31;5041180;28;20194;-71
2021/08/18 06:22:01;;;;;;;9.23;8.17;;;;;;;16.39;73.85;100670.94;5041017;28;20519;-71
2021/08/18 06:24:28;;;;;;;9.77;8.70;;;;;;;16.39;73.40;100674.44;5040942;28;20309;-71
2021/08/18 06:26:57;;;;;;;9.17;8.10;;;;;;;16.43;72.97;100681.38;5041110;28;20841;-71
2021/08/18 06:29:24;;;;;;;10.13;8.80;;;;;;;16.37;73.24;100677.97;5041276;28;20862;-71
2021/08/18 06:31:52;;;;;;;8.30;7.50;;;;;;;16.14;73.78;100682.69;5041067;28;20413;-72
2021/08/18 06:34:18;;;;;;;9.57;7.10;;;;;;;16.13;75.10;100691.47;5040713;28;20519;-71
2021/08/18 06:36:43;;;;;;;8.17;7.37;;;;;;;16.06;75.86;100676.69;5041525;28;20412;-71
2021/08/18 06:39:09;;;;;;;8.53;6.90;;;;;;;16.09;75.52;100686.31;5040696;28;20476;-71
2021/08/18 06:41:34;;;;;;;12.47;7.13;;;;;;;16.12;75.81;100689.72;5040766;28;20179;-71
2021/08/18 06:43:59;;;;;;;7.57;6.77;;;;;;;16.08;75.92;100682.78;5041027;28;20424;-70
2021/08/18 06:46:24;;;;;;;8.47;6.90;;;;;;;16.20;76.12;100679.13;5040501;28;20178;-70
2021/08/18 06:48:50;;;;;;;7.57;6.87;;;;;;;15.90;77.22;100683.03;5040617;28;20182;-70
2021/08/18 06:51:16;;;;;;;7.50;6.80;;;;;;;16.44;75.20;100682.25;5041227;28;20275;-69
2021/08/18 06:53:42;;;;;;;8.00;7.40;;;;;;;16.56;74.87;100679.44;5040173;28;20170;-70
2021/08/18 06:56:08;;;;;;;7.23;6.30;;;;;;;15.98;77.51;100678.56;5040513;28;20562;-70
2021/08/18 06:58:36;;;;;;;7.03;6.23;;;;;;;16.78;75.27;100682.59;5040952;28;20559;-69
2021/08/18 07:01:01;;;;;;;6.80;6.17;;;;;;;16.38;75.69;100679.72;5040542;28;20204;-70
2021/08/18 07:03:26;;;;;;;6.60;6.00;;;;;;;16.32;76.36;100688.59;5040332;28;20432;-73
2021/08/18 07:05:52;;;;;;;6.40;5.90;;;;;;;16.85;74.59;100680.72;5040785;28;20206;-70
2021/08/18 07:08:17;;;;;;;7.33;6.60;;;;;;;17.11;74.36;100664.47;5040237;28;20182;-67
2021/08/18 07:10:42;;;;;;;8.13;6.97;;;;;;;16.87;74.01;100681.53;5020723;28;20254;-68
2021/08/18 07:13:08;;;;;;;7.20;6.60;;;;;;;17.38;72.73;100677.16;5040253;28;20189;-70
2021/08/18 07:15:33;;;;;;;6.53;5.83;;;;;;;16.84;74.38;100673.69;5039950;28;20186;-69
2021/08/18 07:18:01;;;;;;;6.80;6.13;;;;;;;17.16;72.92;100669.66;5039951;28;20280;-69
2021/08/18 07:20:26;;;;;;;7.43;6.00;;;;;;;17.16;72.99;100673.16;5040592;28;20178;-69
2021/08/18 07:22:51;;;;;;;6.90;6.30;;;;;;;16.64;74.64;100679.31;5040069;28;20471;-71
2021/08/18 07:25:16;;;;;;;9.73;5.87;;;;;;;16.58;74.32;100672.38;5039735;28;20277;-70
2021/08/18 07:27:42;;;;;;;10.37;6.37;;;;;;;16.87;73.63;100681.53;5040092;28;20240;-69
2021/08/18 07:30:08;;;;;;;7.53;6.40;;;;;;;16.53;74.56;100673.34;5039675;28;20511;-69
2021/08/18 07:32:34;;;;;;;7.53;5.77;;;;;;;16.78;73.99;100672.06;5039659;28;20170;-69
2021/08/18 07:34:59;;;;;;;7.23;5.77;;;;;;;16.85;73.93;100680.72;5040024;28;20167;-69
2021/08/18 07:37:27;;;;;;;8.40;5.70;;;;;;;16.47;75.69;100672.56;5022382;28;20503;-71
2021/08/18 07:39:54;;;;;;;6.33;5.77;;;;;;;16.40;76.03;100676.19;5039512;28;20270;-70
2021/08/18 07:42:20;;;;;;;6.30;5.70;;;;;;;16.00;77.68;100677.63;5039954;28;20500;-71
2021/08/18 07:44:45;;;;;;;7.00;6.13;;;;;;;16.69;76.25;100677.47;5039574;28;20435;-71
2021/08/18 07:47:10;;;;;;;7.20;6.17;;;;;;;16.55;76.70;100675.06;5039436;28;20201;-73
2021/08/18 07:49:36;;;;;;;8.27;6.13;;;;;;;16.44;76.94;100669.97;5040047;28;20536;-70
2021/08/18 07:52:02;;;;;;;6.60;6.00;;;;;;;16.28;77.18;100679.00;5039549;28;20562;-74
2021/08/18 07:54:27;;;;;;;12.97;6.53;;;;;;;16.49;76.87;100676.03;5039251;28;20174;-72
2021/08/18 07:56:52;;;;;;;8.70;7.07;;;;;;;16.73;75.75;100686.19;5039671;28;20177;-73
2021/08/18 07:59:17;;;;;;;8.33;6.50;;;;;;;16.73;75.94;100694.94;5039460;28;20214;-72
2021/08/18 08:01:43;;;;;;;10.90;6.47;;;;;;;17.03;75.32;100689.22;5039327;28;20198;-71
2021/08/18 08:04:08;;;;;;;7.93;6.37;;;;;;;17.06;75.21;100686.53;5034873;28;20178;-70
2021/08/18 08:06:33;;;;;;;8.57;5.80;;;;;;;17.72;72.68;100687.00;5038536;28;20179;-72
2021/08/18 08:08:59;;;;;;;9.03;6.20;;;;;;;17.72;71.55;100681.75;5038960;28;20174;-72
2021/08/18 08:11:24;;;;;;;6.60;5.10;;;;;;;18.11;70.22;100679.16;5039078;28;20186;-71
2021/08/18 08:13:49;;;;;;;6.70;5.53;;;;;;;17.75;71.29;100685.19;5038821;28;20174;-71
2021/08/18 08:16:15;;;;;;;7.20;5.13;;;;;;;17.54;71.27;100680.34;5038907;28;20173;-72
2021/08/18 08:18:40;;;;;;;5.63;4.90;;;;;;;17.67;71.29;100676.53;5021873;28;20253;-72
2021/08/18 08:21:05;;;;;;;8.00;5.40;;;;;;;17.11;71.77;100680.25;5038798;28;20253;-71
2021/08/18 08:23:31;;;;;;;8.57;5.67;;;;;;;17.97;69.37;100682.13;5038260;28;20627;-70
2021/08/18 08:25:56;;;;;;;5.30;4.80;;;;;;;17.69;69.10;100680.03;5038928;28;20178;-71
2021/08/18 08:28:21;;;;;;;5.13;4.33;;;;;;;17.99;69.48;100680.31;5038616;28;20432;-70
2021/08/18 08:30:49;;;;;;;5.03;4.43;;;;;;;17.33;70.73;100685.13;5038649;28;20220;-69
2021/08/18 08:33:14;;;;;;;6.40;4.60;;;;;;;17.50;70.63;100685.66;5038878;28;20537;-70
2021/08/18 08:35:39;;;;;;;5.17;4.50;;;;;;;17.57;70.53;100696.09;5038605;28;20421;-72
2021/08/18 08:38:05;;;;;;;6.80;5.17;;;;;;;17.92;69.41;100687.47;5038459;28;20255;-71
2021/08/18 08:40:30;;;;;;;8.10;5.20;;;;;;;17.50;71.25;100692.72;5038420;28;20520;-70
2021/08/18 08:42:56;;;;;;;7.50;4.97;;;;;;;17.15;72.83;100699.53;5038326;28;20185;-71
2021/08/18 08:45:21;;;;;;;5.20;4.70;;;;;;;17.21;72.84;100702.06;5038346;28;20178;-70
2021/08/18 08:47:47;;;;;;;5.70;4.77;;;;;;;17.16;72.80;100701.28;5021371;28;20436;-71
2021/08/18 08:50:14;;;;;;;5.47;4.93;;;;;;;17.02;74.12;100704.13;5038370;28;20192;-70
2021/08/18 08:52:39;;;;;;;7.40;5.63;;;;;;;17.17;74.55;100693.34;5038312;28;20257;-70
2021/08/18 08:55:06;;;;;;;6.53;5.77;;;;;;;17.40;73.59;100694.69;5038405;28;20804;-70
2021/08/18 08:57:31;;;;;;;5.93;5.30;;;;;;;17.26;73.70;100699.34;5037801;28;20198;-71
2021/08/18 08:59:56;;;;;;;7.90;5.40;;;;;;;17.78;72.41;100698.31;5038128;28;20425;-70
2021/08/18 09:02:22;;;;;;;6.03;5.43;;;;;;;17.82;71.86;100696.47;5038389;28;20527;-71
2021/08/18 09:04:49;;;;;;;6.00;5.40;;;;;;;17.88;71.83;100688.41;5037880;28;20178;-71
2021/08/18 09:07:22;;;;;;;6.33;5.23;;;;;;;18.13;71.59;100694.06;5038429;28;20165;-71
2021/08/18 09:09:56;;;;;;;8.50;5.90;;;;;;;18.38;70.10;100700.56;5038344;28;20415;-71
2021/08/18 09:12:38;;;;;;;7.80;5.43;;;;;;;19.09;67.80;100693.53;5038620;28;20519;-71
2021/08/18 09:15:16;;;;;;;6.50;5.90;;;;;;;18.80;67.65;100684.56;5037707;28;20445;-70
2021/08/18 09:17:42;;;;;;;6.17;5.30;;;;;;;19.42;66.40;100697.03;5037601;28;20464;-70
2021/08/18 09:20:12;;;;;;;10.23;5.77;;;;;;;19.26;66.18;100699.22;5037834;28;20794;-70
2021/08/18 09:22:47;;;;;;;7.77;5.50;;;;;;;18.62;67.44;100702.59;5038009;28;20439;-71
2021/08/18 09:25:18;;;;;;;11.30;6.40;;;;;;;19.13;66.30;100703.09;5037738;28;20711;-71
2021/08/18 09:27:47;;;;;;;7.47;5.43;;;;;;;18.50;68.01;100709.03;5037976;28;20421;-72
2021/08/18 09:30:22;;;;;;;7.03;5.33;;;;;;;18.14;69.41;100705.47;5037316;28;20499;-71
2021/08/18 09:32:47;;;;;;;5.87;5.37;;;;;;;18.62;67.87;100691.19;5037706;28;20440;-72
2021/08/18 09:35:15;;;;;;;6.93;6.23;;;;;;;18.23;68.25;100707.91;5037647;28;20431;-71
2021/08/18 09:37:42;;;;;;;6.10;5.50;;;;;;;18.58;67.08;100695.66;5038123;28;20568;-70
2021/08/18 09:40:28;;;;;;;6.53;5.93;;;;;;;18.83;66.87;100701.22;5037654;28;20809;-71
2021/08/18 09:43:08;;;;;;;7.80;6.30;;;;;;;18.47;67.66;100697.69;5037442;28;20511;-69
2021/08/18 09:45:34;;;;;;;6.80;6.10;;;;;;;18.76;66.53;100701.38;5037598;28;20421;-71
2021/08/18 09:48:06;;;;;;;8.27;5.80;;;;;;;19.03;65.55;100697.19;5037423;28;20433;-71
2021/08/18 09:50:42;;;;;;;6.63;5.23;;;;;;;19.12;65.46;100699.59;5037910;28;20173;-70
2021/08/18 09:53:10;;;;;;;7.70;6.00;;;;;;;19.55;63.52;100694.03;5037309;28;20429;-70
2021/08/18 09:55:36;;;;;;;11.13;5.40;;;;;;;19.57;63.21;100695.72;5037572;28;20691;-70
2021/08/18 09:58:02;;;;;;;6.13;5.20;;;;;;;19.54;62.99;100695.84;5037864;28;20464;-70
2021/08/18 10:00:27;;;;;;;6.27;5.00;;;;;;;19.55;62.89;100680.81;5037315;28;20268;-71
2021/08/18 10:02:53;;;;;;;6.00;5.50;;;;;;;19.88;61.83;100679.00;5019958;28;20416;-71
2021/08/18 10:05:18;;;;;;;8.90;5.70;;;;;;;19.60;62.82;100687.69;5037733;28;20213;-71
2021/08/18 10:07:44;;;;;;;5.63;5.03;;;;;;;19.60;63.03;100685.06;5020359;28;20183;-71
2021/08/18 10:10:10;;;;;;;7.60;6.00;;;;;;;20.15;62.53;100679.94;5037401;28;20182;-71
2021/08/18 10:12:36;;;;;;;6.13;5.20;;;;;;;20.38;61.07;100675.69;5037711;28;20174;-72
2021/08/18 10:15:06;;;;;;;6.27;5.50;;;;;;;21.00;59.81;100678.97;5037356;28;20413;-72
2021/08/18 10:17:39;;;;;;;7.00;5.53;;;;;;;20.39;61.13;100679.19;5037276;28;20297;-73
2021/08/18 10:20:06;;;;;;;7.73;4.93;;;;;;;21.35;58.14;100675.06;5019878;28;20449;-73
2021/08/18 10:22:31;;;;;;;11.07;5.60;;;;;;;21.10;58.08;100677.72;5019975;28;20511;-73
2021/08/18 10:25:33;;;;;;;5.90;5.30;;;;;;;20.56;59.86;100683.97;5016531;28;20465;-72
2021/08/18 10:27:58;;;;;;;6.37;4.90;;;;;;;19.87;61.90;100684.34;5019022;28;20178;-72
2021/08/18 10:30:25;;;;;;;5.50;5.00;;;;;;;19.94;62.27;100678.78;5021340;28;20424;-70
2021/08/18 10:32:51;;;;;;;7.70;5.50;;;;;;;19.81;62.05;100682.75;5020777;28;20452;-70
2021/08/18 10:35:36;;;;;;;8.13;5.83;;;;;;;19.85;62.50;100679.97;5020212;28;20418;-70
2021/08/18 10:38:23;;;;;;;8.77;5.33;;;;;;;19.52;62.94;100685.31;5020460;28;20471;-70
2021/08/18 10:40:49;;;;;;;6.83;5.57;;;;;;;19.41;62.62;100686.50;5020292;28;20417;-71
2021/08/18 10:43:52;;;;;;;7.63;5.73;;;;;;;19.98;62.08;100683.09;5020175;28;20525;-70
2021/08/18 10:46:18;;;;;;;7.17;5.67;;;;;;;19.74;61.31;100682.03;5019053;28;20166;-69
2021/08/18 10:48:55;;;;;;;8.70;6.10;;;;;;;20.33;60.68;100680.25;5020578;28;20425;-69
2021/08/18 10:51:41;;;;;;;7.60;5.40;;;;;;;21.40;57.23;100666.94;5020631;28;20206;-69
2021/08/18 10:54:27;;;;;;;7.27;5.70;;;;;;;21.05;57.12;100684.09;5006801;28;20426;-69
2021/08/18 10:56:57;;;;;;;9.17;5.97;;;;;;;21.77;55.49;100681.50;5020745;28;20441;-68
2021/08/18 10:59:50;;;;;;;7.53;6.17;;;;;;;21.15;57.44;100681.06;5020116;28;20453;-70
2021/08/18 11:02:48;;;;;;;6.93;5.60;;;;;;;21.21;57.66;100687.94;5010107;28;20484;-71
2021/08/18 11:05:14;;;;;;;7.77;6.17;;;;;;;21.34;56.92;100683.06;5020399;28;20843;-70
2021/08/18 11:08:02;;;;;;;10.17;5.67;;;;;;;21.11;57.46;100683.91;5020482;28;20429;-71
2021/08/18 11:10:28;;;;;;;8.27;5.77;;;;;;;20.42;60.07;100685.28;5020104;28;20779;-71
2021/08/18 11:12:55;;;;;;;8.47;6.20;;;;;;;19.93;61.23;100685.03;5020028;28;20418;-71
2021/08/18 11:15:20;;;;;;;8.37;5.83;;;;;;;19.41;63.34;100684.72;5019926;28;20179;-70